Murrumba Downs, Queensland

2:30 PM AEST on October 25, 2014 (GMT +1000)
strathpine | Change Station
CLOSE
Current Station
Personal Weather Station
Location: Strathpine, QUEENSLAND
Elevation: 31 ft
Nearby Weather Stations

Elev 31 ft 27.30 °S, 152.99 °E | Updated 3 seconds ago

Partly Cloudy
Partly Cloudy
81.3 °F
Feels Like 83 °F
N
9.8
Wind Variable Wind from ENE
Gusts 16.8 mph

Today
High -- | Low -- °F
--% Chance of Precip.
Yesterday
High -- | Low -- °F
Precip. -- in
5:03 AM 6:01 PM
New Moon, 2% visible
Pressure 29.98 in
Visibility 6.2 miles
Clouds Few 3800 ft
Heat Index 83 °F
Dew Point 64 °F
Humidity 55%
Rainfall 0.00 in
Snow Depth Not available.
UV 0.0 out of 12
Pollen Not available.
Air Quality Not available.
Flu Activity Not available.
METAR YBBN 250400Z 01019KT 9999 FEW038 25/17 Q1015 NOSIG

More Conditions Fewer Conditions

Pressure 29.98 in
Visibility 6.2 miles
Clouds Few 3800 ft
Heat Index 83 °F
Dew Point 64 °F
Humidity 55%
Rainfall 0.00 in
Snow Depth Not available.
UV 0.0 out of 12
Pollen Not available.
Air Quality Not available.
Flu Activity Not available.
METAR YBBN 250400Z 01019KT 9999 FEW038 25/17 Q1015 NOSIG

More Conditions Fewer Conditions

10-Day Weather Forecast

Almanac

Astronomy

Oct. 25, 2014 Rise Set
Actual Time 5:03 AM AEST 6:01 PM AEST
Civil Twilight 4:39 AM AEST 6:25 PM AEST
Nautical Twilight 4:10 AM AEST 6:53 PM AEST
Astronomical Twilight 3:41 AM AEST 7:23 PM AEST
Moon 5:48 AM AEST 7:15 PM AEST
Length of Visible Light 13h 46m
Length of Day
12h 58m
Tomorrow will be 1m 31s longer.
New Moon, 2% of the Moon is Illuminated
Today
New Moon
Oct 30
First Quarter
Nov 6
Full
Nov 14
Last Quarter
Nov 22
New

Yesterday's Extremes

Country Highs Country Lows

Community

WunderPhotos

Upload Photos

1,764,782 photos uploaded!

Nearby

Snow Depth

Not available.

Earthquake Activity

City Distance Mag. Time & Date
No recent earthquake activity has been reported nearby.
Minimum magnitude displayed is 2.5.

Coastal Water Temperatures

Place Temperature
No Stations Reporting

Nearby Weather Stations